Airfield :
LOGIN :

Register | Disclaimer

   EN    FR    IT 

 










Legend :    VFR   Marginal VFR   IFR   Intensive IFR   Very Intensive IFR
Visi :
Ceiling :
>= 8 km
>= 3000ft
5 to 8 km
1000 to 3000 ft
1500m to 5 km
500 to 1000 ft
800 to 1500m
200 to 500 ft
< 800m
< 200 ft
Symbols :   Thunderstorms  Fog  Heavy snow  Heavy precipitations  Wind > 20 kt
SIGMETs :     Misc.  Thunderstorms  Icing  Turbulence  Mountain Waves  Volcanic Ashes







- Airport Elevation : -15 ft
- IATA code : RTM


EHRD - Rotterdam Zestienhoven

CURRENT METAR :
  • 211725Z AUTO 28004KT 250V320 9999 OVC008 09/08 Q1033 NOSIG

EXPIRED METARs :
  • 211655Z AUTO 27005KT 240V300 9999 OVC008 09/08 Q1033 BECMG BKN010
  • 211625Z AUTO 27005KT 9999 OVC009 09/08 Q1033 BECMG BKN010
  • 211555Z AUTO 28006KT 250V310 9999 OVC009 10/08 Q1033 BECMG BKN010
  • 211525Z AUTO 27006KT 240V300 9999 OVC009 10/08 Q1033 BECMG BKN010
  • 211455Z AUTO 27008KT 240V310 9999 BKN011 OVC013 10/08 Q1033 NOSIG
  • 211425Z AUTO 26007KT 230V290 9999 OVC012 10/08 Q1033 BECMG BKN015

TAF AMD TAF EHRD
Valid from the 21 at 15:00 until the 22 at 18:00 UTC


211506Z 2115/2218 27008KT 9999 BKN010
BECMG 2117/2120 VRB03KT SCT015
BECMG 2120/2123 6000 MIFG
BECMG 2123/2202 1500 BCFG
PROB40 2202/2207 0600 FG VV001
BECMG 2207/2209 15005KT 6000 NSW SCT005
BECMG 2209/2212 18006KT CAVOK
BECMG 2215/2218 VRB03KT
No reported NOTAMs for that airfield.



MET'MAP, your aeronautical weather chart ! - Copyright ORBIFLY December 2007 - Disclaimer

ORBIFLY MET'MAP TEAM :

Programming & Development : Alexandra Zaïnal
Concept & Development : Baudouin d'Aumeries
Co-Development & Prog : Marc-Olivier Méhu
Technical & hardware support : Manuel Goepfert

Contact : metmap@orbifly.com




SOURCES & CREDITS :

   NOAA